Time;durP1;ratioP1;P1;durP2;ratioP2;P2;SDS_P1;SDS_P2;PMS_P1;PMS_P2;Temp;Humidity;BMP_temperature;BMP_pressure;BME280_temperature;BME280_humidity;BME280_pressure;Samples;Min_cycle;Max_cycle;Signal;HPM_P1;HPM_P2
2023/05/12 03:02:08;;;;;;;22.53;20.93;;;11.10;99.90;;;;;;5215014;23;20686;-78
2023/05/12 03:04:35;;;;;;;32.60;30.40;;;11.10;99.90;;;;;;5012172;28;20184;-77
2023/05/12 03:07:01;;;;;;;51.57;48.77;;;11.10;99.90;;;;;;5013087;28;20179;-78
2023/05/12 03:09:27;;;;;;;102.53;97.27;;;11.10;99.90;;;;;;5010355;28;20230;-79
2023/05/12 03:11:53;;;;;;;113.27;107.50;;;11.10;99.90;;;;;;5006040;28;20220;-79
2023/05/12 03:14:18;;;;;;;112.83;107.10;;;11.10;99.90;;;;;;5001383;28;20184;-79
2023/05/12 03:16:44;;;;;;;96.17;91.40;;;11.10;99.90;;;;;;4998370;28;20676;-79
2023/05/12 03:19:10;;;;;;;82.90;78.33;;;11.10;99.90;;;;;;4996967;28;20199;-79
2023/05/12 03:21:36;;;;;;;92.00;87.20;;;11.20;99.90;;;;;;5001402;28;20664;-79
2023/05/12 03:24:02;;;;;;;110.47;104.77;;;11.20;99.90;;;;;;4999799;28;20239;-79
2023/05/12 03:26:27;;;;;;;114.17;108.23;;;11.20;99.90;;;;;;4998083;28;20205;-80
2023/05/12 03:28:53;;;;;;;112.37;106.30;;;11.20;99.90;;;;;;4998060;28;20302;-79
2023/05/12 03:31:19;;;;;;;114.33;108.50;;;11.20;99.90;;;;;;4996741;28;20287;-79
2023/05/12 03:33:45;;;;;;;113.53;107.37;;;11.20;99.90;;;;;;4997972;28;20248;-78
2023/05/12 03:36:12;;;;;;;108.80;103.17;;;11.20;99.90;;;;;;4998042;28;20176;-78
2023/05/12 03:38:37;;;;;;;112.63;106.73;;;11.20;99.90;;;;;;4981660;28;20268;-79
2023/05/12 03:41:06;;;;;;;116.57;110.50;;;11.10;99.90;;;;;;4996500;28;20230;-79
2023/05/12 03:43:32;;;;;;;107.93;102.30;;;11.10;99.90;;;;;;4996275;28;20200;-79
2023/05/12 03:45:58;;;;;;;121.63;115.40;;;11.20;99.90;;;;;;4998703;28;20191;-79
2023/05/12 03:48:24;;;;;;;116.77;110.57;;;11.20;99.90;;;;;;4997943;28;20701;-79
2023/05/12 03:50:49;;;;;;;123.47;117.20;;;11.10;99.90;;;;;;5001901;28;20199;-80
2023/05/12 03:53:15;;;;;;;124.00;117.67;;;11.20;99.90;;;;;;4978903;28;20191;-80
2023/05/12 03:55:41;;;;;;;117.73;111.70;;;11.20;99.90;;;;;;4982806;28;20282;-79
2023/05/12 03:58:07;;;;;;;119.13;112.77;;;11.10;99.90;;;;;;5004426;28;20196;-80
2023/05/12 04:00:33;;;;;;;122.27;116.00;;;11.10;99.90;;;;;;4998509;28;20216;-80
2023/05/12 04:02:59;;;;;;;116.10;109.83;;;11.10;99.90;;;;;;4998165;28;20277;-79
2023/05/12 04:05:25;;;;;;;115.00;109.03;;;11.10;99.90;;;;;;4997592;28;20176;-80
2023/05/12 04:07:51;;;;;;;117.53;111.20;;;11.10;99.90;;;;;;4996186;28;20455;-80
2023/05/12 04:10:17;;;;;;;119.03;112.63;;;11.10;99.90;;;;;;4998155;28;20185;-80
2023/05/12 04:12:42;;;;;;;116.87;110.63;;;11.20;99.90;;;;;;4992577;28;20191;-79
2023/05/12 04:15:09;;;;;;;113.47;107.67;;;11.20;99.90;;;;;;5001710;28;20188;-80
2023/05/12 04:17:35;;;;;;;104.03;98.60;;;11.20;99.90;;;;;;5025390;28;20271;-79
2023/05/12 04:20:00;;;;;;;91.47;86.70;;;11.20;99.90;;;;;;5016909;28;20451;-79
2023/05/12 04:22:27;;;;;;;67.00;63.33;;;11.20;99.90;;;;;;5001098;28;20208;-79
2023/05/12 04:24:53;;;;;;;59.63;56.23;;;11.20;99.90;;;;;;5002852;28;20219;-79
2023/05/12 04:27:19;;;;;;;52.47;49.27;;;11.20;99.90;;;;;;4999855;28;20223;-82
2023/05/12 04:29:45;;;;;;;48.07;44.87;;;11.20;99.90;;;;;;4992058;28;20193;-80
2023/05/12 04:32:11;;;;;;;53.47;50.20;;;11.20;99.90;;;;;;4998488;28;20204;-81
2023/05/12 04:34:36;;;;;;;52.27;49.07;;;11.30;99.90;;;;;;4998331;28;20238;-80
2023/05/12 04:37:02;;;;;;;41.83;39.37;;;11.40;99.90;;;;;;4998703;28;20192;-79
2023/05/12 04:39:28;;;;;;;31.53;29.63;;;11.40;99.90;;;;;;4997758;28;20628;-79
2023/05/12 04:41:54;;;;;;;22.17;20.60;;;11.40;99.90;;;;;;4998628;28;20204;-80
2023/05/12 04:44:21;;;;;;;17.07;15.60;;;11.40;99.90;;;;;;4999034;28;20207;-80
2023/05/12 04:46:48;;;;;;;15.43;14.23;;;11.50;99.90;;;;;;4999176;28;20615;-80
2023/05/12 04:49:14;;;;;;;12.77;11.67;;;11.60;99.90;;;;;;5007942;28;20293;-79
2023/05/12 04:51:43;;;;;;;11.60;10.70;;;11.60;99.90;;;;;;4992567;28;20671;-79
2023/05/12 04:54:09;;;;;;;10.63;9.67;;;11.60;99.90;;;;;;5022058;28;20187;-79
2023/05/12 04:56:36;;;;;;;10.90;9.90;;;11.70;99.90;;;;;;5016543;28;20188;-73
2023/05/12 04:59:02;;;;;;;14.10;12.80;;;11.70;99.90;;;;;;5012174;28;20568;-72
2023/05/12 05:01:28;;;;;;;18.10;16.70;;;11.70;99.90;;;;;;5012324;28;20227;-73
2023/05/12 05:03:54;;;;;;;20.97;19.27;;;11.80;99.90;;;;;;5007506;28;20176;-72
2023/05/12 05:06:20;;;;;;;22.67;21.17;;;11.90;99.90;;;;;;4992959;28;20184;-73
2023/05/12 05:08:45;;;;;;;24.37;22.27;;;11.90;99.90;;;;;;4992328;28;20308;-72
2023/05/12 05:11:11;;;;;;;36.97;34.67;;;11.90;99.90;;;;;;4992629;28;20215;-72
2023/05/12 05:13:37;;;;;;;46.93;43.93;;;11.90;99.90;;;;;;4991771;28;20285;-73
2023/05/12 05:16:03;;;;;;;45.17;42.33;;;12.00;99.90;;;;;;4992641;28;20188;-73
2023/05/12 05:18:29;;;;;;;28.80;26.77;;;12.10;99.90;;;;;;4982887;28;20272;-73
2023/05/12 05:20:55;;;;;;;21.87;20.27;;;12.10;99.90;;;;;;4972953;28;20263;-72
2023/05/12 05:23:20;;;;;;;15.40;14.00;;;12.20;99.90;;;;;;4973007;28;20185;-72
2023/05/12 05:25:46;;;;;;;12.03;11.03;;;12.10;99.90;;;;;;4990834;28;20191;-73
2023/05/12 05:28:12;;;;;;;12.80;11.50;;;12.20;99.90;;;;;;4994111;28;20212;-79
2023/05/12 05:30:38;;;;;;;13.23;10.60;;;12.30;99.90;;;;;;4997671;28;20204;-79
2023/05/12 05:33:04;;;;;;;13.47;12.33;;;12.40;99.90;;;;;;4999078;28;20203;-78
2023/05/12 05:35:30;;;;;;;14.50;13.17;;;12.40;99.90;;;;;;4997571;28;20181;-78
2023/05/12 05:37:56;;;;;;;14.57;13.17;;;12.40;99.90;;;;;;4998648;28;20208;-78
2023/05/12 05:40:22;;;;;;;17.67;13.53;;;12.40;99.90;;;;;;4996456;28;20548;-78
2023/05/12 05:42:48;;;;;;;13.30;12.10;;;12.40;99.90;;;;;;4996204;28;20184;-79
2023/05/12 05:45:13;;;;;;;12.73;11.60;;;12.50;99.90;;;;;;4993436;28;20199;-78
2023/05/12 05:47:39;;;;;;;12.47;11.27;;;12.50;99.90;;;;;;4973667;28;20208;-78
2023/05/12 05:50:06;;;;;;;12.40;11.30;;;12.60;99.90;;;;;;4974988;28;20233;-80
2023/05/12 05:52:31;;;;;;;12.47;11.33;;;12.70;99.90;;;;;;4976407;28;20220;-77
2023/05/12 05:54:57;;;;;;;12.17;10.97;;;12.70;99.90;;;;;;4999107;28;20199;-77
2023/05/12 05:57:26;;;;;;;13.57;12.37;;;12.80;99.90;;;;;;5002609;28;20203;-77
2023/05/12 05:59:52;;;;;;;15.43;14.03;;;12.70;99.90;;;;;;5003004;28;20200;-78
2023/05/12 06:02:21;;;;;;;16.17;14.90;;;12.70;99.90;;;;;;4995918;28;20212;-79
2023/05/12 06:04:48;;;;;;;15.13;14.03;;;12.80;99.90;;;;;;4993028;28;20204;-79
2023/05/12 06:07:13;;;;;;;19.87;18.23;;;12.90;99.90;;;;;;4994619;28;20563;-77
2023/05/12 06:09:39;;;;;;;32.07;29.87;;;13.00;99.90;;;;;;4992733;28;20177;-79
2023/05/12 06:12:05;;;;;;;29.30;27.47;;;13.00;99.90;;;;;;4998727;28;20207;-76
2023/05/12 06:14:31;;;;;;;22.87;21.37;;;13.10;99.90;;;;;;4996841;28;20663;-77
2023/05/12 06:16:57;;;;;;;16.50;15.10;;;13.10;99.90;;;;;;4993821;28;20184;-79
2023/05/12 06:19:23;;;;;;;14.00;12.77;;;13.00;99.90;;;;;;4995212;28;20192;-78
2023/05/12 06:21:50;;;;;;;11.77;10.83;;;13.10;99.90;;;;;;4995831;28;20204;-78
2023/05/12 06:24:16;;;;;;;13.10;12.00;;;13.10;99.90;;;;;;4994192;28;20196;-78
2023/05/12 06:26:42;;;;;;;11.43;10.43;;;13.10;99.90;;;;;;4994151;28;20192;-78
2023/05/12 06:29:08;;;;;;;10.03;9.23;;;13.10;99.90;;;;;;4975955;28;20213;-78
2023/05/12 06:31:33;;;;;;;10.83;9.73;;;13.30;99.90;;;;;;4974159;28;20289;-77
2023/05/12 06:33:59;;;;;;;11.03;10.13;;;13.50;99.90;;;;;;4972911;28;20747;-78
2023/05/12 06:36:26;;;;;;;9.70;9.00;;;13.60;99.90;;;;;;4971940;28;20656;-76
2023/05/12 06:38:52;;;;;;;12.00;11.10;;;13.90;99.90;;;;;;4972376;28;20605;-77
2023/05/12 06:41:18;;;;;;;16.13;15.03;;;14.10;99.90;;;;;;4975757;28;20739;-73
2023/05/12 06:43:44;;;;;;;15.60;14.60;;;14.30;99.90;;;;;;4991549;28;20228;-73
2023/05/12 06:46:10;;;;;;;16.87;15.77;;;14.40;99.90;;;;;;4991408;28;20192;-75
2023/05/12 06:48:36;;;;;;;19.33;18.13;;;14.50;99.90;;;;;;4990134;28;20220;-76
2023/05/12 06:51:02;;;;;;;16.40;15.40;;;14.70;99.90;;;;;;4990053;28;20196;-75
2023/05/12 06:53:29;;;;;;;11.17;10.47;;;14.90;99.90;;;;;;4991095;28;20331;-76
2023/05/12 06:55:55;;;;;;;8.70;8.10;;;15.00;99.90;;;;;;4986685;28;20772;-78
2023/05/12 06:58:21;;;;;;;14.17;8.60;;;15.20;99.90;;;;;;4991786;28;20191;-77
2023/05/12 07:00:47;;;;;;;8.37;7.77;;;15.30;99.90;;;;;;4994837;28;20303;-76
2023/05/12 07:03:13;;;;;;;7.93;7.33;;;15.50;99.90;;;;;;4993998;28;20263;-76
2023/05/12 07:05:40;;;;;;;7.37;6.87;;;15.80;99.90;;;;;;4996359;28;20215;-76
2023/05/12 07:08:05;;;;;;;12.00;11.30;;;16.00;99.90;;;;;;4991851;28;20234;-76
2023/05/12 07:10:32;;;;;;;12.70;11.73;;;16.00;99.90;;;;;;4991209;28;20215;-76
2023/05/12 07:12:58;;;;;;;13.07;12.27;;;16.00;99.90;;;;;;4991543;28;20556;-77
2023/05/12 07:15:24;;;;;;;83.93;75.50;;;15.80;99.90;;;;;;4990580;28;20180;-76
2023/05/12 07:17:50;;;;;;;12.07;11.37;;;15.90;99.90;;;;;;4992410;28;20184;-77
2023/05/12 07:20:16;;;;;;;10.53;9.93;;;16.10;99.90;;;;;;4992751;28;20521;-77
2023/05/12 07:22:42;;;;;;;12.43;11.67;;;16.20;99.90;;;;;;4993580;28;20212;-77
2023/05/12 07:25:08;;;;;;;14.00;13.20;;;16.20;99.90;;;;;;4974401;28;20603;-77
2023/05/12 07:27:34;;;;;;;10.47;9.87;;;16.40;99.90;;;;;;4971434;28;20213;-76
2023/05/12 07:30:00;;;;;;;8.23;7.80;;;16.30;99.90;;;;;;4974487;28;20182;-77
2023/05/12 07:32:26;;;;;;;9.00;8.43;;;16.50;99.90;;;;;;4976278;28;20204;-77
2023/05/12 07:34:52;;;;;;;9.33;8.53;;;16.60;99.90;;;;;;4971282;28;20173;-77
2023/05/12 07:37:18;;;;;;;8.40;7.77;;;16.60;99.90;;;;;;4974419;28;20179;-76
2023/05/12 07:39:43;;;;;;;10.10;9.50;;;16.50;99.90;;;;;;4990351;28;20559;-77
2023/05/12 07:42:09;;;;;;;16.57;15.60;;;16.30;99.90;;;;;;4992420;28;20200;-76
2023/05/12 07:44:35;;;;;;;15.23;14.00;;;16.10;99.90;;;;;;4993924;28;20215;-77
2023/05/12 07:47:01;;;;;;;11.00;10.20;;;15.70;99.90;;;;;;4996451;28;20195;-77
2023/05/12 07:49:27;;;;;;;10.37;9.67;;;15.40;99.90;;;;;;4996155;28;20304;-75
2023/05/12 07:51:53;;;;;;;7.20;6.70;;;14.90;99.90;;;;;;4992936;28;20287;-76
2023/05/12 07:54:19;;;;;;;10.90;10.20;;;14.80;99.90;;;;;;4994704;28;20184;-76
2023/05/12 07:56:44;;;;;;;17.07;16.17;;;14.70;99.90;;;;;;4983971;28;20189;-76
2023/05/12 07:59:12;;;;;;;17.03;15.97;;;14.60;99.90;;;;;;4972673;28;20177;-75
2023/05/12 08:01:37;;;;;;;26.70;25.30;;;14.60;99.90;;;;;;4973304;28;20220;-76
2023/05/12 08:04:03;;;;;;;25.13;23.73;;;14.80;99.90;;;;;;4973663;28;20192;-75
2023/05/12 08:06:29;;;;;;;15.87;15.00;;;15.10;99.90;;;;;;4972992;28;20192;-75
2023/05/12 08:08:56;;;;;;;9.33;8.83;;;15.40;99.90;;;;;;4972445;28;20244;-75
2023/05/12 08:11:23;;;;;;;7.43;7.03;;;15.70;99.90;;;;;;4973060;28;20291;-75
2023/05/12 08:13:48;;;;;;;6.53;6.03;;;16.00;99.90;;;;;;4978717;28;20557;-73
2023/05/12 08:16:14;;;;;;;9.03;8.50;;;16.40;99.90;;;;;;4993468;28;20187;-74
2023/05/12 08:18:40;;;;;;;8.70;8.20;;;16.60;99.90;;;;;;4990992;28;20189;-73
2023/05/12 08:21:06;;;;;;;10.00;9.43;;;16.70;99.90;;;;;;4992265;28;20235;-75
2023/05/12 08:23:32;;;;;;;8.53;8.10;;;17.00;99.90;;;;;;4991987;28;20711;-74
2023/05/12 08:25:57;;;;;;;22.87;21.70;;;17.30;99.90;;;;;;4993133;28;20263;-74
2023/05/12 08:28:23;;;;;;;28.13;26.63;;;17.60;99.90;;;;;;4991624;28;20208;-74
2023/05/12 08:30:49;;;;;;;59.13;56.07;;;18.00;99.90;;;;;;4993013;28;20212;-74
2023/05/12 08:33:15;;;;;;;54.13;51.53;;;18.40;99.90;;;;;;4987884;28;20181;-73
2023/05/12 08:35:41;;;;;;;29.10;27.73;;;18.90;99.90;;;;;;4974284;28;20208;-75
2023/05/12 08:38:07;;;;;;;12.27;11.47;;;18.90;99.90;;;;;;4973253;28;20540;-75
2023/05/12 08:40:45;;;;;;;11.17;10.67;;;18.70;99.90;;;;;;4975174;28;20216;-74
2023/05/12 08:43:25;;;;;;;15.57;14.80;;;18.30;99.90;;;;;;4976239;28;20626;-74
2023/05/12 08:45:58;;;;;;;21.60;20.50;;;18.10;99.90;;;;;;4975270;28;20275;-74
2023/05/12 08:48:26;;;;;;;12.33;11.63;;;18.30;99.90;;;;;;4989544;28;20695;-74
2023/05/12 08:50:54;;;;;;;10.53;9.97;;;18.50;99.90;;;;;;4993643;28;20196;-74
2023/05/12 08:53:23;;;;;;;9.07;8.60;;;18.70;99.90;;;;;;4992899;28;20199;-74
2023/05/12 08:55:50;;;;;;;6.80;6.50;;;18.60;99.90;;;;;;4991399;28;20243;-74
2023/05/12 08:58:17;;;;;;;9.23;8.73;;;18.50;99.90;;;;;;4992132;28;20550;-74
2023/05/12 09:00:43;;;;;;;8.50;7.90;;;18.40;99.90;;;;;;4944967;28;1141590;-74
2023/05/12 09:03:12;;;;;;;8.10;7.70;;;18.40;99.90;;;;;;4973609;28;20197;-75
2023/05/12 09:05:42;;;;;;;8.33;7.93;;;18.50;99.90;;;;;;4973988;28;20181;-74
2023/05/12 09:08:09;;;;;;;11.50;11.00;;;18.80;99.90;;;;;;4992654;28;20222;-74
2023/05/12 09:10:36;;;;;;;10.83;10.33;;;18.90;99.90;;;;;;4992087;28;20196;-75
2023/05/12 09:13:15;;;;;;;11.47;10.87;;;18.80;99.90;;;;;;4992107;28;20272;-74
2023/05/12 09:15:44;;;;;;;10.20;9.73;;;19.00;99.90;;;;;;5012188;23;20267;-71
2023/05/12 09:18:10;;;;;;;9.07;8.60;;;19.00;99.90;;;;;;4992143;28;20239;-71
2023/05/12 09:20:36;;;;;;;10.27;9.80;;;19.00;99.90;;;;;;4992546;28;20284;-71
2023/05/12 09:23:18;;;;;;;7.77;7.47;;;19.00;99.90;;;;;;4992560;28;20180;-72
2023/05/12 09:25:45;;;;;;;10.23;9.73;;;19.10;99.90;;;;;;4992649;28;20712;-72
2023/05/12 09:28:11;;;;;;;10.77;10.17;;;19.20;99.90;;;;;;4992523;28;20305;-72
2023/05/12 09:30:41;;;;;;;12.87;12.23;;;19.10;99.90;;;;;;4990615;28;20652;-71
2023/05/12 09:33:07;;;;;;;8.30;7.77;;;18.40;99.90;;;;;;4992574;28;20312;-74
2023/05/12 09:35:43;;;;;;;26.37;25.10;;;18.00;99.90;;;;;;4991344;28;20201;-72
2023/05/12 09:38:10;;;;;;;41.03;39.07;;;17.90;99.90;;;;;;4990832;28;20212;-72
2023/05/12 09:40:36;;;;;;;15.77;15.07;;;17.60;99.90;;;;;;4992398;28;20180;-72
2023/05/12 09:43:06;;;;;;;14.87;14.17;;;17.50;99.90;;;;;;4990996;28;20242;-71
2023/05/12 09:45:37;;;;;;;20.40;19.40;;;17.60;99.90;;;;;;4983668;28;20259;-72
2023/05/12 09:48:10;;;;;;;21.10;19.93;;;17.70;99.90;;;;;;4970821;28;20220;-72
2023/05/12 09:50:46;;;;;;;29.67;28.07;;;17.60;99.90;;;;;;4970351;28;20232;-72
2023/05/12 09:53:13;;;;;;;59.63;56.83;;;17.30;99.90;;;;;;4972325;28;20188;-72
2023/05/12 09:55:41;;;;;;;79.43;75.67;;;17.00;99.90;;;;;;4972049;28;20214;-72
2023/05/12 09:58:08;;;;;;;25.00;23.57;;;16.90;99.90;;;;;;4972332;28;20671;-72
2023/05/12 10:00:39;;;;;;;8.87;8.40;;;16.60;99.90;;;;;;4973002;28;20196;-72
2023/05/12 10:03:10;;;;;;;6.73;6.30;;;16.30;99.90;;;;;;4972997;28;20218;-72
2023/05/12 10:05:45;;;;;;;3.97;3.77;;;16.20;99.90;;;;;;4971830;28;20624;-72
2023/05/12 10:08:15;;;;;;;4.10;3.90;;;15.90;99.90;;;;;;4971634;28;20204;-70
2023/05/12 10:10:42;;;;;;;4.07;3.87;;;15.60;99.90;;;;;;4970994;28;20178;-73
2023/05/12 10:13:12;;;;;;;5.77;5.57;;;15.40;99.90;;;;;;4988150;28;20185;-72
2023/05/12 10:15:40;;;;;;;9.33;8.87;;;15.40;99.90;;;;;;4972423;28;20223;-72
2023/05/12 10:18:06;;;;;;;9.57;9.03;;;15.40;99.90;;;;;;4985797;28;20187;-72
2023/05/12 10:20:33;;;;;;;8.87;8.27;;;15.40;99.90;;;;;;4991939;28;20279;-72
2023/05/12 10:23:00;;;;;;;8.43;8.13;;;15.50;99.90;;;;;;4991895;28;20215;-72
2023/05/12 10:25:28;;;;;;;8.17;7.73;;;15.40;99.90;;;;;;4990684;28;20672;-73
2023/05/12 10:27:55;;;;;;;10.20;9.70;;;15.40;99.90;;;;;;4990243;28;20298;-72
2023/05/12 10:30:22;;;;;;;7.97;7.67;;;15.40;99.90;;;;;;4990701;28;20188;-72
2023/05/12 10:32:49;;;;;;;8.50;7.93;;;15.40;99.90;;;;;;4991334;28;20199;-72
2023/05/12 10:35:15;;;;;;;8.73;8.33;;;15.60;99.90;;;;;;4992226;28;20628;-72
2023/05/12 10:37:41;;;;;;;9.20;8.70;;;15.90;99.90;;;;;;4989935;28;20260;-73
2023/05/12 10:40:09;;;;;;;7.83;7.40;;;16.10;99.90;;;;;;4991006;28;20183;-73
2023/05/12 10:42:42;;;;;;;9.03;8.63;;;16.10;99.90;;;;;;4992093;28;20543;-72
2023/05/12 10:45:19;;;;;;;7.17;6.87;;;16.10;99.90;;;;;;4991870;28;20196;-72
2023/05/12 10:47:46;;;;;;;7.13;6.83;;;16.10;99.90;;;;;;4990071;28;20718;-73
2023/05/12 10:50:12;;;;;;;6.67;6.37;;;16.10;99.90;;;;;;4991965;28;20515;-72
2023/05/12 10:52:55;;;;;;;6.90;6.60;;;16.10;99.90;;;;;;4991901;28;20191;-72
2023/05/12 10:55:41;;;;;;;7.50;7.17;;;16.20;99.90;;;;;;4993340;28;20204;-72
2023/05/12 10:58:11;;;;;;;6.70;6.40;;;16.40;99.90;;;;;;4991553;28;20241;-72
2023/05/12 11:00:45;;;;;;;9.13;8.67;;;16.40;99.90;;;;;;4991767;28;20560;-72
2023/05/12 11:03:13;;;;;;;12.47;11.87;;;16.50;99.90;;;;;;4991737;28;20678;-72
2023/05/12 11:05:39;;;;;;;31.80;30.37;;;16.50;99.90;;;;;;4991435;28;20223;-72
2023/05/12 11:08:05;;;;;;;62.00;58.90;;;16.40;99.90;;;;;;4990456;28;20211;-72
2023/05/12 11:10:31;;;;;;;59.50;56.67;;;16.50;99.90;;;;;;4990227;28;20583;-72
2023/05/12 11:12:58;;;;;;;62.37;59.40;;;16.30;99.90;;;;;;4991281;28;20708;-72
2023/05/12 11:15:24;;;;;;;73.83;70.40;;;16.30;99.90;;;;;;4991108;28;20227;-72
2023/05/12 11:17:51;;;;;;;59.60;56.70;;;16.30;99.90;;;;;;4989254;28;20249;-72
2023/05/12 11:20:25;;;;;;;44.43;42.30;;;16.40;99.90;;;;;;4991377;28;20183;-71
2023/05/12 11:22:53;;;;;;;13.20;12.60;;;16.50;99.90;;;;;;4990951;28;20274;-72
2023/05/12 11:25:18;;;;;;;16.87;16.07;;;16.50;99.90;;;;;;4975659;28;20205;-72
2023/05/12 11:27:47;;;;;;;22.50;21.20;;;16.60;99.90;;;;;;4988450;28;20354;-72
2023/05/12 11:30:13;;;;;;;11.93;10.60;;;16.90;99.90;;;;;;4994872;28;20172;-75
2023/05/12 11:32:39;;;;;;;11.07;10.37;;;17.10;99.90;;;;;;4995084;28;20184;-72
2023/05/12 11:35:14;;;;;;;12.10;11.27;;;17.30;99.90;;;;;;4995115;28;20677;-72
2023/05/12 11:37:42;;;;;;;13.93;13.13;;;17.20;99.90;;;;;;4991421;28;20268;-73
2023/05/12 11:40:15;;;;;;;13.10;12.27;;;17.20;99.90;;;;;;4994793;28;20204;-74
2023/05/12 11:42:44;;;;;;;15.03;14.27;;;17.60;99.90;;;;;;4995202;28;20276;-75
2023/05/12 11:45:25;;;;;;;23.30;18.43;;;18.00;99.90;;;;;;4993313;28;20203;-75
2023/05/12 11:47:52;;;;;;;8.37;7.90;;;18.50;99.90;;;;;;4994507;28;20215;-75
2023/05/12 11:50:24;;;;;;;9.53;8.73;;;19.00;99.90;;;;;;4994918;28;20180;-75
2023/05/12 11:52:51;;;;;;;17.20;16.20;;;19.10;99.90;;;;;;4994188;28;20184;-75
2023/05/12 11:55:22;;;;;;;19.00;18.07;;;19.00;99.90;;;;;;4993687;28;20613;-75
2023/05/12 11:58:01;;;;;;;12.07;11.47;;;18.80;99.90;;;;;;4994616;28;20237;-75
2023/05/12 12:00:30;;;;;;;8.03;7.53;;;18.80;99.90;;;;;;4994857;28;20275;-75
2023/05/12 12:03:13;;;;;;;6.87;6.57;;;18.50;99.90;;;;;;4994900;28;20188;-75
2023/05/12 12:05:40;;;;;;;7.70;7.30;;;18.60;99.90;;;;;;4993006;28;20214;-75
2023/05/12 12:08:14;;;;;;;11.73;11.13;;;18.40;99.90;;;;;;4973667;28;20220;-75
2023/05/12 12:10:44;;;;;;;16.27;15.37;;;18.00;99.90;;;;;;4975177;28;20196;-71
2023/05/12 12:13:11;;;;;;;7.83;7.33;;;17.50;99.90;;;;;;4975196;28;20240;-71
2023/05/12 12:15:37;;;;;;;8.37;7.80;;;16.10;99.90;;;;;;4975183;28;20249;-72
2023/05/12 12:18:03;;;;;;;76.77;73.03;;;15.20;99.90;;;;;;4973715;28;20185;-71
2023/05/12 12:20:29;;;;;;;49.27;46.67;;;14.70;99.90;;;;;;4977026;28;20311;-71
2023/05/12 12:22:56;;;;;;;8.60;8.10;;;14.40;99.90;;;;;;4994535;28;20191;-71
2023/05/12 12:25:22;;;;;;;32.40;30.50;;;14.20;99.90;;;;;;4994283;28;20300;-72
2023/05/12 12:27:48;;;;;;;33.07;31.23;;;14.10;99.90;;;;;;4992811;28;20270;-71
2023/05/12 12:30:15;;;;;;;42.33;39.93;;;14.10;99.90;;;;;;4994353;28;20176;-71
2023/05/12 12:32:42;;;;;;;9.60;8.83;;;14.20;99.90;;;;;;4994394;28;20184;-71
2023/05/12 12:35:10;;;;;;;9.57;8.80;;;14.20;99.90;;;;;;4984960;28;20356;-71
2023/05/12 12:37:36;;;;;;;11.73;8.80;;;14.20;99.90;;;;;;4974531;28;20684;-71
2023/05/12 12:40:06;;;;;;;12.03;11.13;;;14.30;99.90;;;;;;4975465;28;20177;-71
2023/05/12 12:42:36;;;;;;;22.77;21.47;;;14.30;99.90;;;;;;4975033;28;20805;-71
2023/05/12 12:45:07;;;;;;;34.67;32.77;;;14.50;99.90;;;;;;4975694;28;20892;-70
2023/05/12 12:47:33;;;;;;;80.50;76.40;;;14.60;99.90;;;;;;4993638;28;20176;-71
2023/05/12 12:49:59;;;;;;;54.67;51.63;;;14.70;99.90;;;;;;4988753;28;20180;-75
2023/05/12 12:52:25;;;;;;;9.80;9.03;;;14.90;99.90;;;;;;4992443;28;20177;-75
2023/05/12 12:54:51;;;;;;;26.87;25.03;;;15.00;99.90;;;;;;4995775;28;20230;-74
2023/05/12 12:57:17;;;;;;;31.20;29.47;;;15.10;99.90;;;;;;5002656;28;20194;-77
2023/05/12 12:59:43;;;;;;;27.87;26.17;;;15.30;99.90;;;;;;5001628;28;20184;-74
2023/05/12 13:02:08;;;;;;;18.60;17.20;;;15.40;99.90;;;;;;5001148;28;20197;-74
2023/05/12 13:04:34;;;;;;;18.23;17.17;;;15.70;99.90;;;;;;4987239;28;20196;-74
2023/05/12 13:07:00;;;;;;;15.93;14.77;;;15.90;99.90;;;;;;4979982;28;20184;-74
2023/05/12 13:09:26;;;;;;;8.77;7.97;;;16.00;99.90;;;;;;4980091;28;20217;-74
2023/05/12 13:11:52;;;;;;;7.87;7.17;;;16.00;99.90;;;;;;4975568;28;20181;-75
2023/05/12 13:14:18;;;;;;;8.97;8.17;;;16.10;99.90;;;;;;4976133;28;20181;-75
2023/05/12 13:16:44;;;;;;;9.10;8.40;;;16.10;99.90;;;;;;4974098;28;20247;-75
2023/05/12 13:19:10;;;;;;;8.50;7.90;;;16.40;99.90;;;;;;4984855;28;20186;-75
2023/05/12 13:21:36;;;;;;;9.00;8.20;;;16.30;99.90;;;;;;4992190;28;20184;-75
2023/05/12 13:24:02;;;;;;;8.60;7.90;;;16.50;99.90;;;;;;4992243;28;20188;-74
2023/05/12 13:26:28;;;;;;;14.60;13.50;;;16.90;99.90;;;;;;4992981;28;20705;-75
2023/05/12 13:28:53;;;;;;;15.07;14.10;;;17.10;99.90;;;;;;4991614;28;20212;-75
2023/05/12 13:31:19;;;;;;;29.40;27.60;;;17.20;99.90;;;;;;4993042;28;20556;-74
2023/05/12 13:33:45;;;;;;;27.40;25.97;;;17.20;99.90;;;;;;4974854;28;20181;-74
2023/05/12 13:36:11;;;;;;;24.57;23.27;;;17.00;99.90;;;;;;4973587;28;20689;-74
2023/05/12 13:38:37;;;;;;;34.00;32.20;;;17.10;99.90;;;;;;4971954;28;20185;-75
2023/05/12 13:41:02;;;;;;;42.60;40.30;;;17.50;99.90;;;;;;4972449;28;20204;-74
2023/05/12 13:43:28;;;;;;;67.93;64.57;;;17.60;99.90;;;;;;4973460;28;20212;-74
2023/05/12 13:45:54;;;;;;;53.60;50.70;;;17.60;99.90;;;;;;4974050;28;20265;-74
2023/05/12 13:48:20;;;;;;;68.63;65.10;;;17.50;99.90;;;;;;4974158;28;20638;-74
2023/05/12 13:50:46;;;;;;;63.43;60.23;;;17.90;99.90;;;;;;4984457;28;20180;-74
2023/05/12 13:53:12;;;;;;;75.00;71.30;;;18.10;99.90;;;;;;4983119;28;20200;-75
2023/05/12 13:55:38;;;;;;;33.27;31.60;;;18.50;99.90;;;;;;4992905;28;20243;-74
2023/05/12 13:58:04;;;;;;;15.03;14.23;;;18.50;99.90;;;;;;4992304;28;20192;-74
2023/05/12 14:00:30;;;;;;;22.80;21.60;;;18.30;99.90;;;;;;4991088;28;20192;-74
2023/05/12 14:02:56;;;;;;;37.37;35.40;;;17.70;99.90;;;;;;4988024;28;20331;-74
2023/05/12 14:05:22;;;;;;;65.90;62.63;;;17.00;99.90;;;;;;4973299;28;20303;-74
2023/05/12 14:07:48;;;;;;;30.33;28.73;;;16.60;99.90;;;;;;4980570;28;20551;-74
2023/05/12 14:10:14;;;;;;;19.90;18.77;;;16.40;99.90;;;;;;4992042;28;20184;-74
2023/05/12 14:12:41;;;;;;;13.10;12.20;;;16.30;99.90;;;;;;4981075;28;20244;-74
2023/05/12 14:15:08;;;;;;;13.60;12.70;;;16.20;99.90;;;;;;4986120;28;20587;-74
2023/05/12 14:17:34;;;;;;;11.63;11.03;;;16.20;99.90;;;;;;4990158;28;20184;-70
2023/05/12 14:20:00;;;;;;;13.13;12.33;;;16.00;99.90;;;;;;4990536;28;20287;-70
2023/05/12 14:22:26;;;;;;;12.50;11.70;;;15.80;99.90;;;;;;4992022;28;20263;-70
2023/05/12 14:24:52;;;;;;;13.27;12.37;;;15.70;99.90;;;;;;4992046;28;20551;-70
2023/05/12 14:27:18;;;;;;;12.23;11.43;;;15.50;99.90;;;;;;4991845;28;20180;-70
2023/05/12 14:29:44;;;;;;;7.27;6.87;;;15.40;99.90;;;;;;4991975;28;20761;-70
2023/05/12 14:32:10;;;;;;;7.27;6.87;;;15.40;99.90;;;;;;4991249;28;20187;-70
2023/05/12 14:34:36;;;;;;;7.80;7.20;;;15.40;99.90;;;;;;4992058;28;20649;-70
2023/05/12 14:37:02;;;;;;;7.60;6.90;;;15.30;99.90;;;;;;4990643;28;20180;-69
2023/05/12 14:39:27;;;;;;;7.70;7.10;;;15.30;99.90;;;;;;4992388;28;20188;-70
2023/05/12 14:41:53;;;;;;;9.13;7.83;;;15.40;99.90;;;;;;4994155;28;20181;-70
2023/05/12 14:44:19;;;;;;;7.83;7.23;;;15.50;99.90;;;;;;5014012;28;20695;-70
2023/05/12 14:46:45;;;;;;;6.97;6.47;;;15.40;99.90;;;;;;4978005;28;20181;-70
2023/05/12 14:49:12;;;;;;;7.30;6.90;;;15.40;99.90;;;;;;4970991;28;20213;-70
2023/05/12 14:51:39;;;;;;;8.00;7.40;;;15.50;99.90;;;;;;4972683;28;20181;-70
2023/05/12 14:54:05;;;;;;;6.97;6.47;;;15.50;99.90;;;;;;4972151;28;20566;-70
2023/05/12 14:56:32;;;;;;;7.60;6.90;;;15.50;99.90;;;;;;4973423;28;20610;-70
2023/05/12 14:58:59;;;;;;;7.57;6.80;;;15.30;99.90;;;;;;4978072;28;20215;-70
2023/05/12 15:01:25;;;;;;;6.80;6.23;;;15.20;99.90;;;;;;4998340;28;20269;-69
2023/05/12 15:03:53;;;;;;;7.30;6.60;;;15.10;99.90;;;;;;4998383;28;20661;-70
2023/05/12 15:06:18;;;;;;;6.57;6.17;;;15.00;99.90;;;;;;4998470;28;20291;-71
2023/05/12 15:08:44;;;;;;;6.70;6.20;;;15.00;99.90;;;;;;4997780;28;20299;-70
2023/05/12 15:11:10;;;;;;;6.53;6.13;;;15.00;99.90;;;;;;4998889;28;20652;-70
2023/05/12 15:13:36;;;;;;;7.20;6.70;;;15.00;99.90;;;;;;4996609;28;20203;-70
2023/05/12 15:16:03;;;;;;;6.77;6.27;;;15.00;99.90;;;;;;5006630;23;20771;-72
2023/05/12 15:18:29;;;;;;;6.47;5.97;;;15.00;99.90;;;;;;4977224;28;20192;-73
2023/05/12 15:20:54;;;;;;;8.47;7.77;;;15.10;99.90;;;;;;4977008;28;20551;-73
2023/05/12 15:23:20;;;;;;;6.37;5.87;;;15.10;99.90;;;;;;4978498;28;20250;-73
2023/05/12 15:25:46;;;;;;;8.03;7.20;;;15.10;99.90;;;;;;4977113;28;20296;-73
2023/05/12 15:28:12;;;;;;;7.10;6.53;;;15.10;99.90;;;;;;4977390;28;20641;-73
2023/05/12 15:30:38;;;;;;;7.00;6.50;;;15.20;99.90;;;;;;4978376;28;20598;-74